createdAt,value
2018-06-25T00:02:04.453Z,2.50
2018-06-25T00:04:34.214Z,2.40
2018-06-25T00:07:04.763Z,2.87
2018-06-25T00:09:35.121Z,2.63
2018-06-25T00:12:04.572Z,2.50
2018-06-25T00:14:34.657Z,2.30
2018-06-25T00:17:05.035Z,2.17
2018-06-25T00:19:35.185Z,2.70
2018-06-25T00:22:05.727Z,2.23
2018-06-25T00:24:36.416Z,2.37
2018-06-25T00:27:06.779Z,2.83
2018-06-25T00:29:37.104Z,2.70
2018-06-25T00:32:08.210Z,2.50
2018-06-25T00:34:38.600Z,2.80
2018-06-25T00:37:09.045Z,2.40
2018-06-25T00:39:40.125Z,2.67
2018-06-25T00:42:11.194Z,2.77
2018-06-25T00:44:40.844Z,2.30
2018-06-25T00:47:11.058Z,2.80
2018-06-25T00:49:41.432Z,3.17
2018-06-25T00:52:11.520Z,2.40
2018-06-25T00:54:42.089Z,2.57
2018-06-25T00:57:12.113Z,2.50
2018-06-25T00:59:49.727Z,2.80
2018-06-25T01:02:20.476Z,2.97
2018-06-25T01:04:50.958Z,2.70
2018-06-25T01:07:20.747Z,2.63
2018-06-25T01:09:50.936Z,2.30
2018-06-25T01:12:21.695Z,2.83
2018-06-25T01:14:51.755Z,2.67
2018-06-25T01:17:22.102Z,2.53
2018-06-25T01:19:52.563Z,2.63
2018-06-25T01:22:25.056Z,3.17
2018-06-25T01:24:55.115Z,2.87
2018-06-25T01:27:25.333Z,2.50
2018-06-25T01:29:57.216Z,2.93
2018-06-25T01:32:27.462Z,2.63
2018-06-25T01:34:58.387Z,2.83
2018-06-25T01:37:29.104Z,2.70
2018-06-25T01:40:00.012Z,2.90
2018-06-25T01:42:30.279Z,2.60
2018-06-25T01:45:00.677Z,2.97
2018-06-25T01:47:31.076Z,2.90
2018-06-25T01:50:01.700Z,3.00
2018-06-25T01:52:32.414Z,2.73
2018-06-25T01:55:03.387Z,2.67
2018-06-25T01:57:33.959Z,2.40
2018-06-25T02:00:04.595Z,2.53
2018-06-25T02:02:34.770Z,2.63
2018-06-25T02:05:04.658Z,3.20
2018-06-25T02:07:34.716Z,2.50
2018-06-25T02:10:05.313Z,2.60
2018-06-25T02:12:35.833Z,3.00
2018-06-25T02:15:06.722Z,2.97
2018-06-25T02:17:37.308Z,2.87
2018-06-25T02:20:07.269Z,3.00
2018-06-25T02:22:37.353Z,3.00
2018-06-25T02:25:07.617Z,2.90
2018-06-25T02:27:37.850Z,2.47
2018-06-25T02:30:08.033Z,2.93
2018-06-25T02:32:38.024Z,2.50
2018-06-25T02:35:08.467Z,2.90
2018-06-25T02:37:38.613Z,2.90
2018-06-25T02:40:09.282Z,3.20
2018-06-25T02:42:39.558Z,2.90
2018-06-25T02:45:09.237Z,2.80
2018-06-25T02:47:39.310Z,2.90
2018-06-25T02:50:09.486Z,2.80
2018-06-25T02:52:39.507Z,2.80
2018-06-25T02:55:09.764Z,2.63
2018-06-25T02:57:40.067Z,2.60
2018-06-25T03:00:10.295Z,3.10
2018-06-25T03:02:40.706Z,3.07
2018-06-25T03:05:10.856Z,2.70
2018-06-25T03:07:40.942Z,2.63
2018-06-25T03:10:11.471Z,2.70
2018-06-25T03:12:40.800Z,2.47
2018-06-25T03:15:10.952Z,2.50
2018-06-25T03:17:41.360Z,2.47
2018-06-25T03:20:12.223Z,2.67
2018-06-25T03:22:42.406Z,2.50
2018-06-25T03:25:12.638Z,2.63
2018-06-25T03:27:42.851Z,3.10
2018-06-25T03:30:13.245Z,2.67
2018-06-25T03:32:43.513Z,2.20
2018-06-25T03:35:13.875Z,2.30
2018-06-25T03:37:44.216Z,2.70
2018-06-25T03:40:13.890Z,2.73
2018-06-25T03:42:44.368Z,3.00
2018-06-25T03:45:14.189Z,2.40
2018-06-25T03:47:44.273Z,2.67
2018-06-25T03:50:14.428Z,2.73
2018-06-25T03:52:44.685Z,2.67
2018-06-25T03:57:49.062Z,2.70
2018-06-25T04:00:19.146Z,2.50
2018-06-25T04:02:49.540Z,2.73
2018-06-25T04:05:19.994Z,2.53
2018-06-25T04:07:50.410Z,2.77
2018-06-25T04:10:20.767Z,2.77
2018-06-25T04:12:50.953Z,2.80
2018-06-25T04:15:21.362Z,2.83
2018-06-25T04:17:51.611Z,2.57
2018-06-25T04:20:21.812Z,3.40
2018-06-25T04:22:52.059Z,3.00
2018-06-25T04:25:22.419Z,3.07
2018-06-25T04:27:52.781Z,3.23
2018-06-25T04:30:22.855Z,3.07
2018-06-25T04:32:53.071Z,3.30
2018-06-25T04:35:23.435Z,3.70
2018-06-25T04:37:53.610Z,3.20
2018-06-25T04:40:24.049Z,2.80
2018-06-25T04:42:54.322Z,4.50
2018-06-25T04:45:24.580Z,3.10
2018-06-25T04:47:54.661Z,3.30
2018-06-25T04:50:25.005Z,3.30
2018-06-25T04:52:55.278Z,3.73
2018-06-25T04:55:25.170Z,2.87
2018-06-25T04:57:55.405Z,3.03
2018-06-25T05:00:25.876Z,2.80
2018-06-25T05:02:56.253Z,3.57
2018-06-25T05:05:26.633Z,3.60
2018-06-25T05:07:57.301Z,4.10
2018-06-25T05:10:27.317Z,5.27
2018-06-25T05:12:57.742Z,5.57
2018-06-25T05:15:28.287Z,4.77
2018-06-25T05:17:58.689Z,5.37
2018-06-25T05:20:28.962Z,5.40
2018-06-25T05:22:59.232Z,6.13
2018-06-25T05:25:29.505Z,6.10
2018-06-25T05:27:59.815Z,6.73
2018-06-25T05:30:30.276Z,5.60
2018-06-25T05:33:00.400Z,4.63
2018-06-25T05:35:30.775Z,6.27
2018-06-25T05:38:01.197Z,6.93
2018-06-25T05:40:31.833Z,8.30
2018-06-25T05:43:02.171Z,7.27
2018-06-25T05:45:32.524Z,8.20
2018-06-25T05:48:02.979Z,8.50
2018-06-25T05:50:33.660Z,8.20
2018-06-25T05:53:03.703Z,7.57
2018-06-25T05:55:33.869Z,7.10
2018-06-25T05:58:04.212Z,7.30
2018-06-25T06:00:34.542Z,6.07
2018-06-25T06:03:04.981Z,5.95
2018-06-25T06:05:35.435Z,5.07
2018-06-25T06:08:05.512Z,4.33
2018-06-25T06:10:35.761Z,4.70
2018-06-25T06:13:06.580Z,4.47
2018-06-25T06:15:37.288Z,3.00
2018-06-25T06:18:07.776Z,2.85
2018-06-25T06:20:38.478Z,2.67
2018-06-25T06:23:08.750Z,3.22
2018-06-25T06:25:39.153Z,3.22
2018-06-25T06:28:09.640Z,3.02
2018-06-25T06:30:39.967Z,3.92
2018-06-25T06:33:10.700Z,3.58
2018-06-25T06:35:41.422Z,3.75
2018-06-25T06:38:11.618Z,2.70
2018-06-25T06:40:42.036Z,3.40
2018-06-25T06:43:12.288Z,3.17
2018-06-25T06:45:42.508Z,4.28
2018-06-25T06:48:12.741Z,3.55
2018-06-25T06:50:42.357Z,5.97
2018-06-25T06:53:12.538Z,3.90
2018-06-25T06:55:42.587Z,4.72
2018-06-25T06:58:12.764Z,4.45
2018-06-25T07:00:43.095Z,4.00
2018-06-25T07:03:13.641Z,3.95
2018-06-25T07:05:43.868Z,3.98
2018-06-25T07:08:13.364Z,3.45
2018-06-25T07:10:43.644Z,3.10
2018-06-25T07:13:13.797Z,3.62
2018-06-25T07:15:44.577Z,2.33
2018-06-25T07:18:14.869Z,2.80
2018-06-25T07:20:45.646Z,2.75
2018-06-25T07:23:16.327Z,2.92
2018-06-25T07:25:46.720Z,2.67
2018-06-25T07:28:17.245Z,2.80
2018-06-25T07:30:47.610Z,3.10
2018-06-25T07:33:17.991Z,3.00
2018-06-25T07:35:48.371Z,3.10
2018-06-25T07:38:18.878Z,2.80
2018-06-25T07:40:49.165Z,2.33
2018-06-25T07:43:19.597Z,2.60
2018-06-25T07:45:50.085Z,2.70
2018-06-25T07:48:21.042Z,2.52
2018-06-25T07:50:51.607Z,2.85
2018-06-25T07:53:21.851Z,2.83
2018-06-25T07:55:52.244Z,3.40
2018-06-25T07:58:22.763Z,2.27
2018-06-25T08:00:52.924Z,3.20
2018-06-25T08:03:23.503Z,3.52
2018-06-25T08:05:53.877Z,3.20
2018-06-25T08:08:24.640Z,3.08
2018-06-25T08:10:54.812Z,4.10
2018-06-25T08:13:25.466Z,3.35
2018-06-25T08:15:55.712Z,3.37
2018-06-25T08:18:26.544Z,3.40
2018-06-25T08:20:56.795Z,2.80
2018-06-25T08:23:28.048Z,2.90
2018-06-25T08:25:58.329Z,2.40
2018-06-25T08:28:28.962Z,2.52
2018-06-25T08:30:59.186Z,2.95
2018-06-25T08:33:29.764Z,2.40
2018-06-25T08:36:00.084Z,2.30
2018-06-25T08:38:32.017Z,2.30
2018-06-25T08:41:02.805Z,2.80
2018-06-25T08:43:33.238Z,2.58
2018-06-25T08:46:03.517Z,2.27
2018-06-25T08:48:33.795Z,2.45
2018-06-25T08:51:04.065Z,2.58
2018-06-25T08:53:34.209Z,2.70
2018-06-25T08:56:04.643Z,2.80
2018-06-25T08:58:34.748Z,2.45
2018-06-25T09:01:05.226Z,2.95
2018-06-25T09:03:34.829Z,2.80
2018-06-25T09:06:05.272Z,2.70
2018-06-25T09:08:34.960Z,3.02
2018-06-25T09:11:05.485Z,2.90
2018-06-25T09:13:34.890Z,2.65
2018-06-25T09:16:05.080Z,2.60
2018-06-25T09:18:35.354Z,2.25
2018-06-25T09:21:06.186Z,2.58
2018-06-25T09:23:37.348Z,2.50
2018-06-25T09:26:07.943Z,3.50
2018-06-25T09:28:38.573Z,2.65
2018-06-25T09:31:08.938Z,2.70
2018-06-25T09:33:39.580Z,2.60
2018-06-25T09:36:09.788Z,2.75
2018-06-25T09:38:40.239Z,2.33
2018-06-25T09:41:10.759Z,2.17
2018-06-25T09:43:40.965Z,2.40
2018-06-25T09:46:11.285Z,2.17
2018-06-25T09:48:41.649Z,1.82
2018-06-25T09:51:12.372Z,2.40
2018-06-25T09:53:43.087Z,2.20
2018-06-25T09:56:15.695Z,2.37
2018-06-25T09:58:46.088Z,2.45
2018-06-25T10:01:16.318Z,2.58
2018-06-25T10:03:46.572Z,2.00
2018-06-25T10:06:16.974Z,2.42
2018-06-25T10:08:47.388Z,2.37
2018-06-25T10:11:18.293Z,2.10
2018-06-25T10:13:48.926Z,2.02
2018-06-25T10:16:19.540Z,2.10
2018-06-25T10:18:50.086Z,2.25
2018-06-25T10:21:21.503Z,2.22
2018-06-25T10:23:51.942Z,2.33
2018-06-25T10:26:21.775Z,1.85
2018-06-25T10:28:52.189Z,2.00
2018-06-25T10:31:22.548Z,2.10
2018-06-25T10:33:53.196Z,2.00
2018-06-25T10:36:23.638Z,2.80
2018-06-25T10:38:54.055Z,2.52
2018-06-25T10:41:24.535Z,2.72
2018-06-25T10:43:55.094Z,2.08
2018-06-25T10:46:25.668Z,2.20
2018-06-25T10:48:56.231Z,2.47
2018-06-25T10:53:50.970Z,2.95
2018-06-25T10:56:21.306Z,2.45
2018-06-25T10:58:51.336Z,2.10
2018-06-25T11:01:21.585Z,2.33
2018-06-25T11:03:51.904Z,2.00
2018-06-25T11:06:23.222Z,2.00
2018-06-25T11:08:53.201Z,2.30
2018-06-25T11:11:24.286Z,1.95
2018-06-25T11:13:54.587Z,2.15
2018-06-25T11:16:25.017Z,1.65
2018-06-25T11:18:55.849Z,2.52
2018-06-25T11:21:26.184Z,1.90
2018-06-25T11:23:56.609Z,2.05
2018-06-25T11:26:26.880Z,1.80
2018-06-25T11:28:57.265Z,2.00
2018-06-25T11:31:28.078Z,2.02
2018-06-25T11:33:58.230Z,1.80
2018-06-25T11:36:29.016Z,1.92
2018-06-25T11:38:59.619Z,2.25
2018-06-25T11:41:30.035Z,1.90
2018-06-25T11:44:00.524Z,2.12
2018-06-25T11:46:30.820Z,2.22
2018-06-25T11:49:01.123Z,1.90
2018-06-25T11:51:32.920Z,1.90
2018-06-25T11:54:03.401Z,2.10
2018-06-25T11:56:33.777Z,2.22
2018-06-25T11:59:04.550Z,2.17
2018-06-25T12:01:34.847Z,2.08
2018-06-25T12:04:05.438Z,2.22
2018-06-25T12:06:35.736Z,2.30
2018-06-25T12:09:08.569Z,2.20
2018-06-25T12:11:38.665Z,2.37
2018-06-25T12:14:08.880Z,2.05
2018-06-25T12:16:39.261Z,1.70
2018-06-25T12:19:09.537Z,3.77
2018-06-25T12:21:39.763Z,2.20
2018-06-25T12:24:10.105Z,2.22
2018-06-25T12:26:40.663Z,2.00
2018-06-25T12:29:11.352Z,1.90
2018-06-25T12:31:41.630Z,1.60
2018-06-25T12:34:11.804Z,2.05
2018-06-25T12:36:42.382Z,2.62
2018-06-25T12:39:12.959Z,1.98
2018-06-25T12:41:43.593Z,2.42
2018-06-25T12:44:13.164Z,2.30
2018-06-25T12:46:43.405Z,2.25
2018-06-25T12:49:13.659Z,2.33
2018-06-25T12:51:43.915Z,2.27
2018-06-25T12:54:14.269Z,1.80
2018-06-25T12:56:44.675Z,1.50
2018-06-25T12:59:14.937Z,1.95
2018-06-25T13:01:45.418Z,2.00
2018-06-25T13:04:15.952Z,2.12
2018-06-25T13:06:46.507Z,1.90
2018-06-25T13:09:16.681Z,1.98
2018-06-25T13:11:47.228Z,1.98
2018-06-25T13:14:17.418Z,2.15
2018-06-25T13:16:48.590Z,2.05
2018-06-25T13:19:18.684Z,2.20
2018-06-25T13:21:48.906Z,2.35
2018-06-25T13:24:19.109Z,1.77
2018-06-25T13:26:49.455Z,2.70
2018-06-25T13:29:19.720Z,1.77
2018-06-25T13:31:49.555Z,1.95
2018-06-25T13:34:19.580Z,1.65
2018-06-25T13:36:49.477Z,2.12
2018-06-25T13:39:20.441Z,1.47
2018-06-25T13:41:50.761Z,1.90
2018-06-25T13:44:20.431Z,1.95
2018-06-25T13:46:50.555Z,1.67
2018-06-25T13:49:21.277Z,1.60
2018-06-25T13:51:51.819Z,2.50
2018-06-25T13:54:22.227Z,1.47
2018-06-25T13:56:52.613Z,1.60
2018-06-25T13:59:23.048Z,1.70
2018-06-25T14:01:53.900Z,1.90
2018-06-25T14:04:24.073Z,1.85
2018-06-25T14:06:55.276Z,2.12
2018-06-25T14:09:25.484Z,1.52
2018-06-25T14:11:55.694Z,2.15
2018-06-25T14:14:26.055Z,2.02
2018-06-25T14:16:56.801Z,1.80
2018-06-25T14:19:27.370Z,2.00
2018-06-25T14:21:57.680Z,2.15
2018-06-25T14:24:32.957Z,1.90
2018-06-25T14:27:08.337Z,1.72
2018-06-25T14:29:38.655Z,1.62
2018-06-25T14:32:14.445Z,1.82
2018-06-25T14:34:48.902Z,2.10
2018-06-25T14:37:19.137Z,2.40
2018-06-25T14:39:49.460Z,1.90
2018-06-25T14:42:20.395Z,1.95
2018-06-25T14:44:51.683Z,1.90
2018-06-25T14:47:22.052Z,1.85
2018-06-25T14:49:52.378Z,1.77
2018-06-25T14:52:22.768Z,1.72
2018-06-25T14:54:53.156Z,1.65
2018-06-25T14:57:22.861Z,1.65
2018-06-25T14:59:53.055Z,2.08
2018-06-25T15:02:23.141Z,2.02
2018-06-25T15:04:53.534Z,1.27
2018-06-25T15:07:23.729Z,1.50
2018-06-25T15:09:54.133Z,1.70
2018-06-25T15:12:24.485Z,2.33
2018-06-25T15:14:54.664Z,1.98
2018-06-25T15:17:24.986Z,1.85
2018-06-25T15:19:55.349Z,2.17
2018-06-25T15:22:25.462Z,1.90
2018-06-25T15:24:55.751Z,1.80
2018-06-25T15:27:25.848Z,1.65
2018-06-25T15:29:55.569Z,2.60
2018-06-25T15:32:31.249Z,2.40
2018-06-25T15:35:01.856Z,1.65
2018-06-25T15:37:32.289Z,1.60
2018-06-25T15:40:02.842Z,1.72
2018-06-25T15:42:33.123Z,1.80
2018-06-25T15:45:03.768Z,1.80
2018-06-25T15:47:34.389Z,1.77
2018-06-25T15:50:04.201Z,1.80
2018-06-25T15:52:33.722Z,1.85
2018-06-25T15:55:03.873Z,1.37
2018-06-25T15:57:34.409Z,2.15
2018-06-25T16:00:05.233Z,1.75
2018-06-25T16:02:35.886Z,1.92
2018-06-25T16:05:06.505Z,1.87
2018-06-25T16:07:36.926Z,1.55
2018-06-25T16:10:08.025Z,1.67
2018-06-25T16:12:38.565Z,1.67
2018-06-25T16:15:09.295Z,1.95
2018-06-25T16:17:39.621Z,1.95
2018-06-25T16:20:09.569Z,1.67
2018-06-25T16:22:40.324Z,1.77
2018-06-25T16:25:11.998Z,1.82
2018-06-25T16:27:42.801Z,1.85
2018-06-25T16:30:13.731Z,2.22
2018-06-25T16:32:44.951Z,2.02
2018-06-25T16:35:14.899Z,2.20
2018-06-25T16:37:45.587Z,1.77
2018-06-25T16:40:15.257Z,2.25
2018-06-25T16:42:46.116Z,1.77
2018-06-25T16:45:16.705Z,2.20
2018-06-25T16:47:48.435Z,1.75
2018-06-25T16:50:18.991Z,1.90
2018-06-25T16:52:49.909Z,1.95
2018-06-25T16:55:20.282Z,2.12
2018-06-25T16:57:50.748Z,1.67
2018-06-25T17:00:21.792Z,2.20
2018-06-25T17:02:52.082Z,2.10
2018-06-25T17:05:22.808Z,1.90
2018-06-25T17:07:53.697Z,2.20
2018-06-25T17:10:25.920Z,1.77
2018-06-25T17:12:56.374Z,2.22
2018-06-25T17:15:26.912Z,2.00
2018-06-25T17:17:56.400Z,1.80
2018-06-25T17:20:28.256Z,1.90
2018-06-25T17:22:58.561Z,2.25
2018-06-25T17:25:29.963Z,2.12
2018-06-25T17:28:01.469Z,2.40
2018-06-25T17:30:33.410Z,2.10
2018-06-25T17:33:05.378Z,1.90
2018-06-25T17:35:37.685Z,1.80
2018-06-25T17:38:11.983Z,2.00
2018-06-25T17:40:43.805Z,2.05
2018-06-25T17:43:14.497Z,2.30
2018-06-25T17:45:44.927Z,2.05
2018-06-25T17:48:15.310Z,1.85
2018-06-25T17:50:45.896Z,2.83
2018-06-25T17:53:16.475Z,2.35
2018-06-25T17:55:46.840Z,2.30
2018-06-25T17:58:19.271Z,2.60
2018-06-25T18:00:50.125Z,2.22
2018-06-25T18:03:25.362Z,2.08
2018-06-25T18:05:57.419Z,6.80
2018-06-25T18:08:27.948Z,2.00
2018-06-25T18:10:58.347Z,2.00
2018-06-25T18:13:28.797Z,2.42
2018-06-25T18:15:59.358Z,2.22
2018-06-25T18:18:29.934Z,2.75
2018-06-25T18:21:00.169Z,2.45
2018-06-25T18:23:30.843Z,2.65
2018-06-25T18:26:01.046Z,2.50
2018-06-25T18:28:31.570Z,2.75
2018-06-25T18:31:02.088Z,2.33
2018-06-25T18:33:32.556Z,2.30
2018-06-25T18:36:02.769Z,2.42
2018-06-25T18:38:33.501Z,2.60
2018-06-25T18:41:03.127Z,2.67
2018-06-25T18:43:33.177Z,2.87
2018-06-25T18:46:03.589Z,2.90
2018-06-25T18:48:34.085Z,2.50
2018-06-25T18:51:03.856Z,2.83
2018-06-25T18:53:33.349Z,2.43
2018-06-25T18:56:03.454Z,2.72
2018-06-25T18:58:33.847Z,2.60
2018-06-25T19:01:05.486Z,2.77
2018-06-25T19:03:36.236Z,3.07
2018-06-25T19:06:06.819Z,2.93
2018-06-25T19:08:37.402Z,2.90
2018-06-25T19:11:08.000Z,2.40
2018-06-25T19:13:38.657Z,2.70
2018-06-25T19:16:08.880Z,3.00
2018-06-25T19:18:38.609Z,3.13
2018-06-25T19:21:09.174Z,3.13
2018-06-25T19:23:39.699Z,2.57
2018-06-25T19:26:10.922Z,2.73
2018-06-25T19:28:41.234Z,3.00
2018-06-25T19:31:11.890Z,2.60
2018-06-25T19:33:42.129Z,2.70
2018-06-25T19:36:14.445Z,3.00
2018-06-25T19:38:45.982Z,2.73
2018-06-25T19:41:16.611Z,3.20
2018-06-25T19:43:47.454Z,2.73
2018-06-25T19:46:18.193Z,3.20
2018-06-25T19:48:48.920Z,2.60
2018-06-25T19:51:19.876Z,2.90
2018-06-25T19:53:51.253Z,2.73
2018-06-25T19:56:22.160Z,2.90
2018-06-25T19:58:58.083Z,2.80
2018-06-25T20:01:29.217Z,2.57
2018-06-25T20:04:05.462Z,2.63
2018-06-25T20:06:37.298Z,2.77
2018-06-25T20:09:14.210Z,3.03
2018-06-25T20:11:51.621Z,2.80
2018-06-25T20:14:23.699Z,2.77
2018-06-25T20:16:54.521Z,2.77
2018-06-25T20:19:26.511Z,3.00
2018-06-25T20:22:01.387Z,2.60
2018-06-25T20:24:33.535Z,2.70
2018-06-25T20:27:03.363Z,2.70
2018-06-25T20:29:34.841Z,3.17
2018-06-25T20:32:07.693Z,2.77
2018-06-25T20:34:39.366Z,2.97
2018-06-25T20:37:11.543Z,3.10
2018-06-25T20:39:43.612Z,3.30
2018-06-25T20:42:15.417Z,3.53
2018-06-25T20:44:47.455Z,2.80
2018-06-25T20:47:18.236Z,4.23
2018-06-25T20:49:50.213Z,3.10
2018-06-25T20:52:20.083Z,2.97
2018-06-25T20:54:53.643Z,2.90
2018-06-25T20:57:30.565Z,3.53
2018-06-25T21:00:02.641Z,3.00
2018-06-25T21:02:34.555Z,3.10
2018-06-25T21:05:06.372Z,3.03
2018-06-25T21:07:37.668Z,3.40
2018-06-25T21:10:08.233Z,3.60
2018-06-25T21:12:42.552Z,3.10
2018-06-25T21:15:14.620Z,3.60
2018-06-25T21:17:45.776Z,3.27
2018-06-25T21:20:18.250Z,3.17
2018-06-25T21:22:49.349Z,3.27
2018-06-25T21:25:19.967Z,3.30
2018-06-25T21:27:50.466Z,3.10
2018-06-25T21:30:20.573Z,3.47
2018-06-25T21:32:50.950Z,3.20
2018-06-25T21:35:21.302Z,3.60
2018-06-25T21:37:51.528Z,3.60
2018-06-25T21:40:21.509Z,4.10
2018-06-25T21:42:51.757Z,3.10
2018-06-25T21:45:22.209Z,3.13
2018-06-25T21:47:52.591Z,3.30
2018-06-25T21:50:22.828Z,3.47
2018-06-25T21:52:53.269Z,3.03
2018-06-25T21:55:24.040Z,3.20
2018-06-25T21:57:54.210Z,2.90
2018-06-25T22:00:26.016Z,3.07
2018-06-25T22:02:56.424Z,3.17
2018-06-25T22:05:26.773Z,3.37
2018-06-25T22:07:57.017Z,3.20
2018-06-25T22:10:26.746Z,3.80
2018-06-25T22:12:56.878Z,4.67
2018-06-25T22:15:27.223Z,2.93
2018-06-25T22:17:57.628Z,3.47
2018-06-25T22:20:27.782Z,3.40
2018-06-25T22:22:58.233Z,3.10
2018-06-25T22:25:28.669Z,3.33
2018-06-25T22:27:59.062Z,3.60
2018-06-25T22:30:30.166Z,2.90
2018-06-25T22:32:59.622Z,3.60
2018-06-25T22:35:29.926Z,3.00
2018-06-25T22:38:00.205Z,3.03
2018-06-25T22:40:31.349Z,3.27
2018-06-25T22:43:01.646Z,3.23
2018-06-25T22:45:31.853Z,3.50
2018-06-25T22:48:02.094Z,3.07
2018-06-25T22:50:32.123Z,2.90
2018-06-25T22:53:02.324Z,2.93
2018-06-25T22:55:33.664Z,3.30
2018-06-25T22:58:03.658Z,3.10
2018-06-25T23:00:34.283Z,3.20
2018-06-25T23:03:04.563Z,3.30
2018-06-25T23:05:34.146Z,2.93
2018-06-25T23:08:04.038Z,3.63
2018-06-25T23:10:34.289Z,3.40
2018-06-25T23:13:04.644Z,3.90
2018-06-25T23:15:34.851Z,3.43
2018-06-25T23:18:04.860Z,2.93
2018-06-25T23:20:35.029Z,2.97
2018-06-25T23:23:05.571Z,3.70
2018-06-25T23:25:35.724Z,3.60
2018-06-25T23:28:06.518Z,3.40
2018-06-25T23:30:36.833Z,3.70
2018-06-25T23:33:07.024Z,3.20
2018-06-25T23:35:36.925Z,3.77
2018-06-25T23:38:08.189Z,4.00
2018-06-25T23:40:38.511Z,3.50
2018-06-25T23:43:08.966Z,3.80
2018-06-25T23:45:39.273Z,3.60
2018-06-25T23:48:09.294Z,3.73
2018-06-25T23:50:39.002Z,3.40
2018-06-25T23:53:09.185Z,3.57
2018-06-25T23:55:39.934Z,3.10
2018-06-25T23:58:10.051Z,2.70
